sensor_id;sensor_type;location;lat;lon;timestamp;P1;durP1;ratioP1;P2;durP2;ratioP2
59300;SDS011;45073;52.740;6.784;2024-01-07T00:01:31;10.27;;;5.35;;
59300;SDS011;45073;52.740;6.784;2024-01-07T00:03:56;13.05;;;5.40;;
59300;SDS011;45073;52.740;6.784;2024-01-07T00:06:22;11.45;;;5.32;;
59300;SDS011;45073;52.740;6.784;2024-01-07T00:08:48;13.70;;;7.32;;
59300;SDS011;45073;52.740;6.784;2024-01-07T00:11:13;15.40;;;7.78;;
59300;SDS011;45073;52.740;6.784;2024-01-07T00:13:39;13.93;;;7.28;;
59300;SDS011;45073;52.740;6.784;2024-01-07T00:16:05;13.90;;;6.95;;
59300;SDS011;45073;52.740;6.784;2024-01-07T00:18:31;16.20;;;7.82;;
59300;SDS011;45073;52.740;6.784;2024-01-07T00:20:56;12.38;;;5.80;;
59300;SDS011;45073;52.740;6.784;2024-01-07T00:23:22;12.93;;;5.32;;
59300;SDS011;45073;52.740;6.784;2024-01-07T00:25:48;9.85;;;4.97;;
59300;SDS011;45073;52.740;6.784;2024-01-07T00:28:13;10.75;;;5.63;;
59300;SDS011;45073;52.740;6.784;2024-01-07T00:30:39;13.20;;;6.57;;
59300;SDS011;45073;52.740;6.784;2024-01-07T00:33:05;13.63;;;6.80;;
59300;SDS011;45073;52.740;6.784;2024-01-07T00:35:30;12.55;;;4.97;;
59300;SDS011;45073;52.740;6.784;2024-01-07T00:37:56;13.32;;;6.03;;
59300;SDS011;45073;52.740;6.784;2024-01-07T00:40:25;11.20;;;5.40;;
59300;SDS011;45073;52.740;6.784;2024-01-07T00:42:51;9.65;;;4.95;;
59300;SDS011;45073;52.740;6.784;2024-01-07T00:45:17;9.55;;;3.70;;
59300;SDS011;45073;52.740;6.784;2024-01-07T00:47:43;12.15;;;6.05;;
59300;SDS011;45073;52.740;6.784;2024-01-07T00:50:09;10.40;;;5.18;;
59300;SDS011;45073;52.740;6.784;2024-01-07T00:52:34;12.55;;;5.70;;
59300;SDS011;45073;52.740;6.784;2024-01-07T00:55:04;12.45;;;5.15;;
59300;SDS011;45073;52.740;6.784;2024-01-07T00:57:31;13.98;;;7.45;;
59300;SDS011;45073;52.740;6.784;2024-01-07T00:59:57;13.02;;;6.28;;
59300;SDS011;45073;52.740;6.784;2024-01-07T01:02:22;12.25;;;4.72;;
59300;SDS011;45073;52.740;6.784;2024-01-07T01:04:48;14.20;;;5.65;;
59300;SDS011;45073;52.740;6.784;2024-01-07T01:07:14;11.77;;;4.75;;
59300;SDS011;45073;52.740;6.784;2024-01-07T01:09:40;7.28;;;3.35;;
59300;SDS011;45073;52.740;6.784;2024-01-07T01:12:05;9.20;;;4.57;;
59300;SDS011;45073;52.740;6.784;2024-01-07T01:14:31;9.82;;;4.15;;
59300;SDS011;45073;52.740;6.784;2024-01-07T01:16:57;14.18;;;5.63;;
59300;SDS011;45073;52.740;6.784;2024-01-07T01:19:23;9.63;;;4.53;;
59300;SDS011;45073;52.740;6.784;2024-01-07T01:21:49;11.38;;;4.88;;
59300;SDS011;45073;52.740;6.784;2024-01-07T01:24:15;10.73;;;4.95;;
59300;SDS011;45073;52.740;6.784;2024-01-07T01:26:43;12.32;;;4.75;;
59300;SDS011;45073;52.740;6.784;2024-01-07T01:29:09;9.27;;;3.97;;
59300;SDS011;45073;52.740;6.784;2024-01-07T01:31:35;8.40;;;3.95;;
59300;SDS011;45073;52.740;6.784;2024-01-07T01:34:00;9.05;;;3.58;;
59300;SDS011;45073;52.740;6.784;2024-01-07T01:36:26;9.77;;;4.32;;
59300;SDS011;45073;52.740;6.784;2024-01-07T01:38:51;9.43;;;4.35;;
59300;SDS011;45073;52.740;6.784;2024-01-07T01:41:17;11.93;;;3.97;;
59300;SDS011;45073;52.740;6.784;2024-01-07T01:43:42;9.45;;;4.03;;
59300;SDS011;45073;52.740;6.784;2024-01-07T01:46:08;10.48;;;5.18;;
59300;SDS011;45073;52.740;6.784;2024-01-07T01:48:35;9.95;;;4.15;;
59300;SDS011;45073;52.740;6.784;2024-01-07T01:51:01;9.52;;;4.55;;
59300;SDS011;45073;52.740;6.784;2024-01-07T01:53:27;7.80;;;3.20;;
59300;SDS011;45073;52.740;6.784;2024-01-07T01:55:55;10.88;;;4.28;;
59300;SDS011;45073;52.740;6.784;2024-01-07T01:58:22;11.45;;;4.70;;
59300;SDS011;45073;52.740;6.784;2024-01-07T02:00:48;10.15;;;4.13;;
59300;SDS011;45073;52.740;6.784;2024-01-07T02:03:16;7.72;;;3.42;;
59300;SDS011;45073;52.740;6.784;2024-01-07T02:05:42;6.15;;;2.88;;
59300;SDS011;45073;52.740;6.784;2024-01-07T02:08:09;9.50;;;4.32;;
59300;SDS011;45073;52.740;6.784;2024-01-07T02:10:34;9.40;;;3.65;;
59300;SDS011;45073;52.740;6.784;2024-01-07T02:13:02;15.88;;;3.35;;
59300;SDS011;45073;52.740;6.784;2024-01-07T02:15:28;11.15;;;5.35;;
59300;SDS011;45073;52.740;6.784;2024-01-07T02:17:54;10.02;;;5.15;;
59300;SDS011;45073;52.740;6.784;2024-01-07T02:20:20;11.40;;;5.20;;
59300;SDS011;45073;52.740;6.784;2024-01-07T02:22:45;10.40;;;4.45;;
59300;SDS011;45073;52.740;6.784;2024-01-07T02:25:11;11.13;;;6.38;;
59300;SDS011;45073;52.740;6.784;2024-01-07T02:27:37;7.57;;;3.30;;
59300;SDS011;45073;52.740;6.784;2024-01-07T02:30:02;10.98;;;4.85;;
59300;SDS011;45073;52.740;6.784;2024-01-07T02:32:28;11.93;;;5.50;;
59300;SDS011;45073;52.740;6.784;2024-01-07T02:34:57;7.05;;;3.95;;
59300;SDS011;45073;52.740;6.784;2024-01-07T02:37:23;10.48;;;4.15;;
59300;SDS011;45073;52.740;6.784;2024-01-07T02:39:48;9.25;;;4.28;;
59300;SDS011;45073;52.740;6.784;2024-01-07T02:42:14;11.07;;;4.90;;
59300;SDS011;45073;52.740;6.784;2024-01-07T02:44:39;11.10;;;4.93;;
59300;SDS011;45073;52.740;6.784;2024-01-07T02:47:05;12.18;;;5.25;;
59300;SDS011;45073;52.740;6.784;2024-01-07T02:49:30;10.15;;;4.93;;
59300;SDS011;45073;52.740;6.784;2024-01-07T02:51:56;10.02;;;4.95;;
59300;SDS011;45073;52.740;6.784;2024-01-07T02:54:22;10.95;;;5.50;;
59300;SDS011;45073;52.740;6.784;2024-01-07T02:56:47;10.57;;;4.88;;
59300;SDS011;45073;52.740;6.784;2024-01-07T02:59:13;9.77;;;3.95;;
59300;SDS011;45073;52.740;6.784;2024-01-07T03:01:38;9.05;;;3.78;;
59300;SDS011;45073;52.740;6.784;2024-01-07T03:04:10;9.63;;;3.75;;
59300;SDS011;45073;52.740;6.784;2024-01-07T03:06:38;7.78;;;3.90;;
59300;SDS011;45073;52.740;6.784;2024-01-07T03:09:03;9.73;;;4.32;;
59300;SDS011;45073;52.740;6.784;2024-01-07T03:11:29;8.77;;;4.28;;
59300;SDS011;45073;52.740;6.784;2024-01-07T03:13:55;10.43;;;4.68;;
59300;SDS011;45073;52.740;6.784;2024-01-07T03:16:22;9.82;;;4.55;;
59300;SDS011;45073;52.740;6.784;2024-01-07T03:18:48;12.20;;;5.22;;
59300;SDS011;45073;52.740;6.784;2024-01-07T03:21:18;9.30;;;4.88;;
59300;SDS011;45073;52.740;6.784;2024-01-07T03:23:44;9.23;;;4.15;;
59300;SDS011;45073;52.740;6.784;2024-01-07T03:26:11;10.20;;;4.28;;
59300;SDS011;45073;52.740;6.784;2024-01-07T03:28:36;9.90;;;3.70;;
59300;SDS011;45073;52.740;6.784;2024-01-07T03:31:07;8.57;;;3.90;;
59300;SDS011;45073;52.740;6.784;2024-01-07T03:33:34;10.82;;;4.97;;
59300;SDS011;45073;52.740;6.784;2024-01-07T03:35:59;9.25;;;4.53;;
59300;SDS011;45073;52.740;6.784;2024-01-07T03:38:25;9.48;;;4.03;;
59300;SDS011;45073;52.740;6.784;2024-01-07T03:40:50;8.25;;;4.15;;
59300;SDS011;45073;52.740;6.784;2024-01-07T03:43:16;11.85;;;5.57;;
59300;SDS011;45073;52.740;6.784;2024-01-07T03:45:42;9.90;;;4.55;;
59300;SDS011;45073;52.740;6.784;2024-01-07T03:48:08;8.57;;;3.63;;
59300;SDS011;45073;52.740;6.784;2024-01-07T03:50:34;10.77;;;5.07;;
59300;SDS011;45073;52.740;6.784;2024-01-07T03:52:59;10.07;;;5.05;;
59300;SDS011;45073;52.740;6.784;2024-01-07T03:55:25;8.18;;;3.88;;
59300;SDS011;45073;52.740;6.784;2024-01-07T03:57:51;9.63;;;4.50;;
59300;SDS011;45073;52.740;6.784;2024-01-07T04:00:16;13.18;;;4.63;;
59300;SDS011;45073;52.740;6.784;2024-01-07T04:02:42;8.95;;;4.03;;
59300;SDS011;45073;52.740;6.784;2024-01-07T04:05:09;10.05;;;4.15;;
59300;SDS011;45073;52.740;6.784;2024-01-07T04:07:34;10.90;;;5.00;;
59300;SDS011;45073;52.740;6.784;2024-01-07T04:10:00;9.98;;;4.80;;
59300;SDS011;45073;52.740;6.784;2024-01-07T04:12:26;8.48;;;4.65;;
59300;SDS011;45073;52.740;6.784;2024-01-07T04:14:51;9.63;;;4.35;;
59300;SDS011;45073;52.740;6.784;2024-01-07T04:17:17;10.20;;;4.30;;
59300;SDS011;45073;52.740;6.784;2024-01-07T04:19:42;10.82;;;3.53;;
59300;SDS011;45073;52.740;6.784;2024-01-07T04:22:08;11.68;;;5.63;;
59300;SDS011;45073;52.740;6.784;2024-01-07T04:24:34;9.07;;;4.57;;
59300;SDS011;45073;52.740;6.784;2024-01-07T04:26:59;10.90;;;4.13;;
59300;SDS011;45073;52.740;6.784;2024-01-07T04:29:25;8.25;;;3.70;;
59300;SDS011;45073;52.740;6.784;2024-01-07T04:31:50;6.70;;;2.70;;
59300;SDS011;45073;52.740;6.784;2024-01-07T04:34:16;8.02;;;3.90;;
59300;SDS011;45073;52.740;6.784;2024-01-07T04:36:41;9.95;;;4.72;;
59300;SDS011;45073;52.740;6.784;2024-01-07T04:39:07;9.52;;;4.03;;
59300;SDS011;45073;52.740;6.784;2024-01-07T04:41:35;9.75;;;4.50;;
59300;SDS011;45073;52.740;6.784;2024-01-07T04:44:00;10.13;;;4.38;;
59300;SDS011;45073;52.740;6.784;2024-01-07T04:46:28;9.82;;;3.38;;
59300;SDS011;45073;52.740;6.784;2024-01-07T04:48:53;8.50;;;3.72;;
59300;SDS011;45073;52.740;6.784;2024-01-07T04:51:19;10.15;;;5.47;;
59300;SDS011;45073;52.740;6.784;2024-01-07T04:53:45;9.25;;;4.07;;
59300;SDS011;45073;52.740;6.784;2024-01-07T04:56:11;9.45;;;4.57;;
59300;SDS011;45073;52.740;6.784;2024-01-07T04:58:37;10.50;;;4.43;;
59300;SDS011;45073;52.740;6.784;2024-01-07T05:01:02;11.38;;;5.28;;
59300;SDS011;45073;52.740;6.784;2024-01-07T05:03:28;7.43;;;3.03;;
59300;SDS011;45073;52.740;6.784;2024-01-07T05:05:53;5.68;;;2.63;;
59300;SDS011;45073;52.740;6.784;2024-01-07T05:08:19;6.20;;;2.83;;
59300;SDS011;45073;52.740;6.784;2024-01-07T05:10:45;11.20;;;3.83;;
59300;SDS011;45073;52.740;6.784;2024-01-07T05:13:10;8.55;;;3.50;;
59300;SDS011;45073;52.740;6.784;2024-01-07T05:15:36;10.57;;;4.20;;
59300;SDS011;45073;52.740;6.784;2024-01-07T05:18:02;11.65;;;4.53;;
59300;SDS011;45073;52.740;6.784;2024-01-07T05:20:27;8.60;;;3.55;;
59300;SDS011;45073;52.740;6.784;2024-01-07T05:22:53;10.40;;;4.32;;
59300;SDS011;45073;52.740;6.784;2024-01-07T05:25:18;12.40;;;3.58;;
59300;SDS011;45073;52.740;6.784;2024-01-07T05:27:44;7.13;;;3.03;;
59300;SDS011;45073;52.740;6.784;2024-01-07T05:30:10;8.55;;;3.22;;
59300;SDS011;45073;52.740;6.784;2024-01-07T05:32:36;11.73;;;4.20;;
59300;SDS011;45073;52.740;6.784;2024-01-07T05:35:02;10.27;;;4.55;;
59300;SDS011;45073;52.740;6.784;2024-01-07T05:37:27;7.00;;;3.50;;
59300;SDS011;45073;52.740;6.784;2024-01-07T05:39:53;10.57;;;4.53;;
59300;SDS011;45073;52.740;6.784;2024-01-07T05:42:19;9.70;;;4.43;;
59300;SDS011;45073;52.740;6.784;2024-01-07T05:44:44;8.90;;;3.75;;
59300;SDS011;45073;52.740;6.784;2024-01-07T05:47:10;8.70;;;3.10;;
59300;SDS011;45073;52.740;6.784;2024-01-07T05:49:36;10.57;;;4.15;;
59300;SDS011;45073;52.740;6.784;2024-01-07T05:52:01;9.48;;;3.80;;
59300;SDS011;45073;52.740;6.784;2024-01-07T05:54:27;11.77;;;3.75;;
59300;SDS011;45073;52.740;6.784;2024-01-07T05:56:53;9.32;;;3.78;;
59300;SDS011;45073;52.740;6.784;2024-01-07T05:59:18;9.30;;;4.05;;
59300;SDS011;45073;52.740;6.784;2024-01-07T06:01:44;7.10;;;3.10;;
59300;SDS011;45073;52.740;6.784;2024-01-07T06:04:10;8.10;;;3.33;;
59300;SDS011;45073;52.740;6.784;2024-01-07T06:06:35;9.57;;;3.83;;
59300;SDS011;45073;52.740;6.784;2024-01-07T06:09:01;13.60;;;2.47;;
59300;SDS011;45073;52.740;6.784;2024-01-07T06:11:27;5.22;;;2.03;;
59300;SDS011;45073;52.740;6.784;2024-01-07T06:13:53;6.32;;;2.38;;
59300;SDS011;45073;52.740;6.784;2024-01-07T06:16:18;6.45;;;2.55;;
59300;SDS011;45073;52.740;6.784;2024-01-07T06:18:44;3.45;;;1.63;;
59300;SDS011;45073;52.740;6.784;2024-01-07T06:21:09;5.00;;;2.10;;
59300;SDS011;45073;52.740;6.784;2024-01-07T06:23:35;6.00;;;1.65;;
59300;SDS011;45073;52.740;6.784;2024-01-07T06:26:04;6.05;;;2.28;;
59300;SDS011;45073;52.740;6.784;2024-01-07T06:28:31;4.25;;;1.63;;
59300;SDS011;45073;52.740;6.784;2024-01-07T06:30:57;3.92;;;1.52;;
59300;SDS011;45073;52.740;6.784;2024-01-07T06:33:23;3.20;;;1.40;;
59300;SDS011;45073;52.740;6.784;2024-01-07T06:35:49;6.28;;;1.95;;
59300;SDS011;45073;52.740;6.784;2024-01-07T06:38:14;7.13;;;2.30;;
59300;SDS011;45073;52.740;6.784;2024-01-07T06:40:40;3.83;;;1.55;;
59300;SDS011;45073;52.740;6.784;2024-01-07T06:43:06;4.28;;;1.50;;
59300;SDS011;45073;52.740;6.784;2024-01-07T06:45:32;6.05;;;2.03;;
59300;SDS011;45073;52.740;6.784;2024-01-07T06:47:57;4.43;;;1.95;;
59300;SDS011;45073;52.740;6.784;2024-01-07T06:50:23;6.10;;;1.92;;
59300;SDS011;45073;52.740;6.784;2024-01-07T06:52:49;4.93;;;1.60;;
59300;SDS011;45073;52.740;6.784;2024-01-07T06:55:14;4.63;;;1.73;;
59300;SDS011;45073;52.740;6.784;2024-01-07T06:57:40;2.60;;;1.08;;
59300;SDS011;45073;52.740;6.784;2024-01-07T07:00:06;2.20;;;0.95;;
59300;SDS011;45073;52.740;6.784;2024-01-07T07:02:32;3.60;;;1.52;;
59300;SDS011;45073;52.740;6.784;2024-01-07T07:04:58;2.75;;;0.93;;
59300;SDS011;45073;52.740;6.784;2024-01-07T07:07:23;5.20;;;2.15;;
59300;SDS011;45073;52.740;6.784;2024-01-07T07:09:49;5.65;;;1.52;;
59300;SDS011;45073;52.740;6.784;2024-01-07T07:12:15;3.65;;;1.25;;
59300;SDS011;45073;52.740;6.784;2024-01-07T07:14:41;5.47;;;1.83;;
59300;SDS011;45073;52.740;6.784;2024-01-07T07:17:06;5.03;;;1.80;;
59300;SDS011;45073;52.740;6.784;2024-01-07T07:19:32;2.65;;;1.20;;
59300;SDS011;45073;52.740;6.784;2024-01-07T07:21:58;5.65;;;1.52;;
59300;SDS011;45073;52.740;6.784;2024-01-07T07:24:23;4.15;;;1.48;;
59300;SDS011;45073;52.740;6.784;2024-01-07T07:26:49;3.80;;;1.38;;
59300;SDS011;45073;52.740;6.784;2024-01-07T07:29:14;4.35;;;1.85;;
59300;SDS011;45073;52.740;6.784;2024-01-07T07:31:40;4.72;;;2.10;;
59300;SDS011;45073;52.740;6.784;2024-01-07T07:34:08;2.92;;;1.33;;
59300;SDS011;45073;52.740;6.784;2024-01-07T07:36:34;3.58;;;1.20;;
59300;SDS011;45073;52.740;6.784;2024-01-07T07:38:59;4.65;;;1.65;;
59300;SDS011;45073;52.740;6.784;2024-01-07T07:41:25;4.25;;;1.73;;
59300;SDS011;45073;52.740;6.784;2024-01-07T07:43:51;4.93;;;1.80;;
59300;SDS011;45073;52.740;6.784;2024-01-07T07:46:16;2.72;;;1.20;;
59300;SDS011;45073;52.740;6.784;2024-01-07T07:48:42;5.63;;;1.38;;
59300;SDS011;45073;52.740;6.784;2024-01-07T07:51:08;3.97;;;1.55;;
59300;SDS011;45073;52.740;6.784;2024-01-07T07:53:33;7.68;;;2.20;;
59300;SDS011;45073;52.740;6.784;2024-01-07T07:55:59;5.45;;;1.70;;
59300;SDS011;45073;52.740;6.784;2024-01-07T07:58:25;5.20;;;1.30;;
59300;SDS011;45073;52.740;6.784;2024-01-07T08:00:51;4.53;;;1.40;;
59300;SDS011;45073;52.740;6.784;2024-01-07T08:03:17;2.55;;;1.20;;
59300;SDS011;45073;52.740;6.784;2024-01-07T08:05:42;5.47;;;1.88;;
59300;SDS011;45073;52.740;6.784;2024-01-07T08:08:08;3.83;;;1.42;;
59300;SDS011;45073;52.740;6.784;2024-01-07T08:10:33;3.33;;;1.23;;
59300;SDS011;45073;52.740;6.784;2024-01-07T08:13:00;2.20;;;0.90;;
59300;SDS011;45073;52.740;6.784;2024-01-07T08:15:26;2.20;;;0.88;;
59300;SDS011;45073;52.740;6.784;2024-01-07T08:17:52;2.33;;;1.30;;
59300;SDS011;45073;52.740;6.784;2024-01-07T08:20:17;3.58;;;1.33;;
59300;SDS011;45073;52.740;6.784;2024-01-07T08:22:44;5.05;;;1.52;;
59300;SDS011;45073;52.740;6.784;2024-01-07T08:25:10;5.03;;;1.60;;
59300;SDS011;45073;52.740;6.784;2024-01-07T08:27:36;2.05;;;1.17;;
59300;SDS011;45073;52.740;6.784;2024-01-07T08:30:02;1.60;;;0.90;;
59300;SDS011;45073;52.740;6.784;2024-01-07T08:32:28;3.10;;;1.75;;
59300;SDS011;45073;52.740;6.784;2024-01-07T08:34:54;3.95;;;1.05;;
59300;SDS011;45073;52.740;6.784;2024-01-07T08:37:19;2.17;;;0.70;;
59300;SDS011;45073;52.740;6.784;2024-01-07T08:39:45;3.55;;;0.95;;
59300;SDS011;45073;52.740;6.784;2024-01-07T08:42:10;2.40;;;0.82;;
59300;SDS011;45073;52.740;6.784;2024-01-07T08:44:36;5.57;;;1.42;;
59300;SDS011;45073;52.740;6.784;2024-01-07T08:47:02;1.58;;;0.93;;
59300;SDS011;45073;52.740;6.784;2024-01-07T08:49:28;3.53;;;1.00;;
59300;SDS011;45073;52.740;6.784;2024-01-07T08:51:54;4.65;;;1.40;;
59300;SDS011;45073;52.740;6.784;2024-01-07T08:54:21;4.30;;;1.40;;
59300;SDS011;45073;52.740;6.784;2024-01-07T08:56:47;3.35;;;1.63;;
59300;SDS011;45073;52.740;6.784;2024-01-07T08:59:14;4.18;;;1.27;;
59300;SDS011;45073;52.740;6.784;2024-01-07T09:01:40;2.85;;;1.15;;
59300;SDS011;45073;52.740;6.784;2024-01-07T09:04:05;3.40;;;1.42;;
59300;SDS011;45073;52.740;6.784;2024-01-07T09:06:34;2.70;;;0.98;;
59300;SDS011;45073;52.740;6.784;2024-01-07T09:08:59;2.47;;;1.05;;
59300;SDS011;45073;52.740;6.784;2024-01-07T09:11:25;3.22;;;1.13;;
59300;SDS011;45073;52.740;6.784;2024-01-07T09:13:57;0.98;;;0.65;;
59300;SDS011;45073;52.740;6.784;2024-01-07T09:16:23;4.68;;;1.25;;
59300;SDS011;45073;52.740;6.784;2024-01-07T09:18:48;3.42;;;1.35;;
59300;SDS011;45073;52.740;6.784;2024-01-07T09:21:14;3.65;;;1.25;;
59300;SDS011;45073;52.740;6.784;2024-01-07T09:23:44;6.50;;;1.60;;
59300;SDS011;45073;52.740;6.784;2024-01-07T09:26:10;2.63;;;1.17;;
59300;SDS011;45073;52.740;6.784;2024-01-07T09:28:36;4.25;;;1.27;;
59300;SDS011;45073;52.740;6.784;2024-01-07T09:31:01;4.15;;;1.48;;
59300;SDS011;45073;52.740;6.784;2024-01-07T09:33:27;2.88;;;1.27;;
59300;SDS011;45073;52.740;6.784;2024-01-07T09:35:53;5.18;;;1.73;;
59300;SDS011;45073;52.740;6.784;2024-01-07T09:38:19;5.50;;;1.83;;
59300;SDS011;45073;52.740;6.784;2024-01-07T09:40:45;2.90;;;1.45;;
59300;SDS011;45073;52.740;6.784;2024-01-07T09:43:11;5.45;;;1.33;;
59300;SDS011;45073;52.740;6.784;2024-01-07T09:45:38;2.92;;;1.30;;
59300;SDS011;45073;52.740;6.784;2024-01-07T09:48:12;3.38;;;1.10;;
59300;SDS011;45073;52.740;6.784;2024-01-07T09:50:38;3.67;;;1.23;;
59300;SDS011;45073;52.740;6.784;2024-01-07T09:53:04;2.70;;;1.10;;
59300;SDS011;45073;52.740;6.784;2024-01-07T09:55:34;1.77;;;0.90;;
59300;SDS011;45073;52.740;6.784;2024-01-07T09:58:05;4.05;;;1.25;;
59300;SDS011;45073;52.740;6.784;2024-01-07T10:00:31;2.88;;;1.17;;
59300;SDS011;45073;52.740;6.784;2024-01-07T10:02:58;2.80;;;1.08;;
59300;SDS011;45073;52.740;6.784;2024-01-07T10:05:23;4.32;;;1.35;;
59300;SDS011;45073;52.740;6.784;2024-01-07T10:07:49;4.15;;;1.25;;
59300;SDS011;45073;52.740;6.784;2024-01-07T10:10:15;2.28;;;0.95;;
59300;SDS011;45073;52.740;6.784;2024-01-07T10:12:43;4.13;;;1.63;;
59300;SDS011;45073;52.740;6.784;2024-01-07T10:15:10;4.68;;;0.98;;
59300;SDS011;45073;52.740;6.784;2024-01-07T10:17:36;3.65;;;1.58;;
59300;SDS011;45073;52.740;6.784;2024-01-07T10:20:04;5.40;;;1.65;;
59300;SDS011;45073;52.740;6.784;2024-01-07T10:22:30;5.53;;;1.38;;
59300;SDS011;45073;52.740;6.784;2024-01-07T10:24:56;2.78;;;1.30;;
59300;SDS011;45073;52.740;6.784;2024-01-07T10:27:23;2.53;;;1.05;;
59300;SDS011;45073;52.740;6.784;2024-01-07T10:29:48;3.53;;;1.38;;
59300;SDS011;45073;52.740;6.784;2024-01-07T10:32:15;2.85;;;0.90;;
59300;SDS011;45073;52.740;6.784;2024-01-07T10:34:44;1.17;;;0.60;;
59300;SDS011;45073;52.740;6.784;2024-01-07T10:37:14;3.80;;;1.55;;
59300;SDS011;45073;52.740;6.784;2024-01-07T10:39:40;2.17;;;0.90;;
59300;SDS011;45073;52.740;6.784;2024-01-07T10:42:05;3.45;;;0.80;;
59300;SDS011;45073;52.740;6.784;2024-01-07T10:44:33;2.63;;;0.95;;
59300;SDS011;45073;52.740;6.784;2024-01-07T10:46:58;1.42;;;0.90;;
59300;SDS011;45073;52.740;6.784;2024-01-07T10:49:25;3.70;;;1.20;;
59300;SDS011;45073;52.740;6.784;2024-01-07T10:52:05;1.30;;;0.63;;
59300;SDS011;45073;52.740;6.784;2024-01-07T10:54:33;1.85;;;0.70;;
59300;SDS011;45073;52.740;6.784;2024-01-07T10:57:04;2.75;;;0.90;;
59300;SDS011;45073;52.740;6.784;2024-01-07T10:59:46;3.10;;;1.08;;
59300;SDS011;45073;52.740;6.784;2024-01-07T11:02:14;2.42;;;1.20;;
59300;SDS011;45073;52.740;6.784;2024-01-07T11:04:45;6.78;;;1.63;;
59300;SDS011;45073;52.740;6.784;2024-01-07T11:07:39;2.47;;;1.00;;
59300;SDS011;45073;52.740;6.784;2024-01-07T11:10:12;2.72;;;1.02;;
59300;SDS011;45073;52.740;6.784;2024-01-07T11:12:42;1.70;;;0.90;;
59300;SDS011;45073;52.740;6.784;2024-01-07T11:15:08;1.30;;;0.57;;
59300;SDS011;45073;52.740;6.784;2024-01-07T11:20:04;3.10;;;1.30;;
59300;SDS011;45073;52.740;6.784;2024-01-07T11:22:30;2.53;;;0.98;;
59300;SDS011;45073;52.740;6.784;2024-01-07T11:24:56;2.10;;;0.95;;
59300;SDS011;45073;52.740;6.784;2024-01-07T11:27:24;2.50;;;1.23;;
59300;SDS011;45073;52.740;6.784;2024-01-07T11:29:54;4.18;;;1.40;;
59300;SDS011;45073;52.740;6.784;2024-01-07T11:32:22;3.78;;;1.27;;
59300;SDS011;45073;52.740;6.784;2024-01-07T11:34:50;2.17;;;0.93;;
59300;SDS011;45073;52.740;6.784;2024-01-07T11:37:18;1.52;;;0.55;;
59300;SDS011;45073;52.740;6.784;2024-01-07T11:39:45;2.47;;;1.13;;
59300;SDS011;45073;52.740;6.784;2024-01-07T11:42:11;2.63;;;1.58;;
59300;SDS011;45073;52.740;6.784;2024-01-07T11:44:37;1.13;;;0.55;;
59300;SDS011;45073;52.740;6.784;2024-01-07T11:47:10;2.22;;;0.98;;
59300;SDS011;45073;52.740;6.784;2024-01-07T11:49:35;1.42;;;0.75;;
59300;SDS011;45073;52.740;6.784;2024-01-07T11:52:01;2.17;;;0.90;;
59300;SDS011;45073;52.740;6.784;2024-01-07T11:54:29;3.28;;;1.00;;
59300;SDS011;45073;52.740;6.784;2024-01-07T11:56:54;2.20;;;0.90;;
59300;SDS011;45073;52.740;6.784;2024-01-07T11:59:21;1.98;;;0.98;;
59300;SDS011;45073;52.740;6.784;2024-01-07T12:01:47;3.83;;;1.30;;
59300;SDS011;45073;52.740;6.784;2024-01-07T12:04:12;3.00;;;1.25;;
59300;SDS011;45073;52.740;6.784;2024-01-07T12:06:38;1.45;;;0.75;;
59300;SDS011;45073;52.740;6.784;2024-01-07T12:09:04;5.20;;;1.52;;
59300;SDS011;45073;52.740;6.784;2024-01-07T12:11:30;2.70;;;1.10;;
59300;SDS011;45073;52.740;6.784;2024-01-07T12:13:57;5.10;;;1.33;;
59300;SDS011;45073;52.740;6.784;2024-01-07T12:16:23;4.32;;;1.35;;
59300;SDS011;45073;52.740;6.784;2024-01-07T12:18:48;4.53;;;1.48;;
59300;SDS011;45073;52.740;6.784;2024-01-07T12:21:20;3.15;;;1.10;;
59300;SDS011;45073;52.740;6.784;2024-01-07T12:23:50;4.85;;;1.33;;
59300;SDS011;45073;52.740;6.784;2024-01-07T12:26:16;4.32;;;1.40;;
59300;SDS011;45073;52.740;6.784;2024-01-07T12:28:44;7.32;;;1.52;;
59300;SDS011;45073;52.740;6.784;2024-01-07T12:31:10;3.70;;;1.40;;
59300;SDS011;45073;52.740;6.784;2024-01-07T12:33:38;2.85;;;1.17;;
59300;SDS011;45073;52.740;6.784;2024-01-07T12:36:06;5.35;;;1.63;;
59300;SDS011;45073;52.740;6.784;2024-01-07T12:38:32;6.13;;;1.80;;
59300;SDS011;45073;52.740;6.784;2024-01-07T12:40:58;5.50;;;1.90;;
59300;SDS011;45073;52.740;6.784;2024-01-07T12:43:23;5.38;;;1.75;;
59300;SDS011;45073;52.740;6.784;2024-01-07T12:45:49;5.72;;;2.05;;
59300;SDS011;45073;52.740;6.784;2024-01-07T12:48:15;7.05;;;2.20;;
59300;SDS011;45073;52.740;6.784;2024-01-07T12:50:41;6.13;;;2.03;;
59300;SDS011;45073;52.740;6.784;2024-01-07T12:53:06;6.53;;;1.75;;
59300;SDS011;45073;52.740;6.784;2024-01-07T12:55:32;6.25;;;2.17;;
59300;SDS011;45073;52.740;6.784;2024-01-07T12:57:58;10.65;;;2.67;;
59300;SDS011;45073;52.740;6.784;2024-01-07T13:00:24;6.65;;;2.40;;
59300;SDS011;45073;52.740;6.784;2024-01-07T13:02:51;6.78;;;1.95;;
59300;SDS011;45073;52.740;6.784;2024-01-07T13:05:17;6.57;;;2.40;;
59300;SDS011;45073;52.740;6.784;2024-01-07T13:07:44;6.57;;;2.47;;
59300;SDS011;45073;52.740;6.784;2024-01-07T13:10:10;7.40;;;2.50;;
59300;SDS011;45073;52.740;6.784;2024-01-07T13:12:35;4.97;;;1.92;;
59300;SDS011;45073;52.740;6.784;2024-01-07T13:15:01;5.03;;;1.90;;
59300;SDS011;45073;52.740;6.784;2024-01-07T13:17:28;7.43;;;2.20;;
59300;SDS011;45073;52.740;6.784;2024-01-07T13:19:55;6.53;;;1.88;;
59300;SDS011;45073;52.740;6.784;2024-01-07T13:22:21;6.38;;;2.45;;
59300;SDS011;45073;52.740;6.784;2024-01-07T13:24:46;8.48;;;2.95;;
59300;SDS011;45073;52.740;6.784;2024-01-07T13:27:12;7.05;;;2.83;;
59300;SDS011;45073;52.740;6.784;2024-01-07T13:29:38;7.70;;;2.88;;
59300;SDS011;45073;52.740;6.784;2024-01-07T13:32:04;7.40;;;3.17;;
59300;SDS011;45073;52.740;6.784;2024-01-07T13:34:30;8.52;;;3.95;;
59300;SDS011;45073;52.740;6.784;2024-01-07T13:36:55;8.45;;;3.30;;
59300;SDS011;45073;52.740;6.784;2024-01-07T13:39:21;8.57;;;3.95;;
59300;SDS011;45073;52.740;6.784;2024-01-07T13:41:47;6.97;;;2.80;;
59300;SDS011;45073;52.740;6.784;2024-01-07T13:44:13;8.40;;;3.00;;
59300;SDS011;45073;52.740;6.784;2024-01-07T13:46:47;8.13;;;3.55;;
59300;SDS011;45073;52.740;6.784;2024-01-07T13:49:13;8.82;;;3.70;;
59300;SDS011;45073;52.740;6.784;2024-01-07T13:51:39;8.02;;;3.10;;
59300;SDS011;45073;52.740;6.784;2024-01-07T13:54:06;8.80;;;3.70;;
59300;SDS011;45073;52.740;6.784;2024-01-07T13:56:32;8.25;;;3.67;;
59300;SDS011;45073;52.740;6.784;2024-01-07T13:59:00;9.48;;;3.03;;
59300;SDS011;45073;52.740;6.784;2024-01-07T14:01:28;7.97;;;3.13;;
59300;SDS011;45073;52.740;6.784;2024-01-07T14:03:54;5.93;;;2.45;;
59300;SDS011;45073;52.740;6.784;2024-01-07T14:06:20;6.90;;;2.80;;
59300;SDS011;45073;52.740;6.784;2024-01-07T14:08:46;7.65;;;2.85;;
59300;SDS011;45073;52.740;6.784;2024-01-07T14:11:12;7.30;;;2.80;;
59300;SDS011;45073;52.740;6.784;2024-01-07T14:13:37;9.05;;;2.78;;
59300;SDS011;45073;52.740;6.784;2024-01-07T14:16:03;6.93;;;2.55;;
59300;SDS011;45073;52.740;6.784;2024-01-07T14:18:29;7.15;;;2.70;;
59300;SDS011;45073;52.740;6.784;2024-01-07T14:20:54;6.85;;;2.50;;
59300;SDS011;45073;52.740;6.784;2024-01-07T14:23:20;7.72;;;2.95;;
59300;SDS011;45073;52.740;6.784;2024-01-07T14:25:46;8.18;;;3.25;;
59300;SDS011;45073;52.740;6.784;2024-01-07T14:28:11;7.05;;;3.08;;
59300;SDS011;45073;52.740;6.784;2024-01-07T14:30:37;9.20;;;3.42;;
59300;SDS011;45073;52.740;6.784;2024-01-07T14:33:03;6.07;;;2.72;;
59300;SDS011;45073;52.740;6.784;2024-01-07T14:35:29;7.38;;;3.25;;
59300;SDS011;45073;52.740;6.784;2024-01-07T14:37:55;9.25;;;3.40;;
59300;SDS011;45073;52.740;6.784;2024-01-07T14:40:24;7.30;;;3.67;;
59300;SDS011;45073;52.740;6.784;2024-01-07T14:42:50;5.93;;;2.42;;